sensor_id;sensor_type;location;lat;lon;timestamp;temperature;humidity
5938;DHT22;2994;51.220;4.412;2022-10-30T00:01:41;20.02;66.23
5938;DHT22;2994;51.220;4.412;2022-10-30T00:04:08;20.02;66.32
5938;DHT22;2994;51.220;4.412;2022-10-30T00:06:33;20.01;66.48
5938;DHT22;2994;51.220;4.412;2022-10-30T00:08:58;19.99;66.50
5938;DHT22;2994;51.220;4.412;2022-10-30T00:11:24;19.96;66.55
5938;DHT22;2994;51.220;4.412;2022-10-30T00:13:49;19.91;66.76
5938;DHT22;2994;51.220;4.412;2022-10-30T00:16:15;19.89;66.69
5938;DHT22;2994;51.220;4.412;2022-10-30T00:18:40;19.87;66.88
5938;DHT22;2994;51.220;4.412;2022-10-30T00:21:16;19.87;66.46
5938;DHT22;2994;51.220;4.412;2022-10-30T00:23:51;19.85;66.71
5938;DHT22;2994;51.220;4.412;2022-10-30T00:26:18;19.86;67.07
5938;DHT22;2994;51.220;4.412;2022-10-30T00:28:48;19.86;67.07
5938;DHT22;2994;51.220;4.412;2022-10-30T00:31:14;19.82;67.12
5938;DHT22;2994;51.220;4.412;2022-10-30T00:33:39;19.81;67.10
5938;DHT22;2994;51.220;4.412;2022-10-30T00:36:05;19.80;67.13
5938;DHT22;2994;51.220;4.412;2022-10-30T00:38:33;19.77;67.24
5938;DHT22;2994;51.220;4.412;2022-10-30T00:40:59;19.76;67.32
5938;DHT22;2994;51.220;4.412;2022-10-30T00:43:38;19.76;67.48
5938;DHT22;2994;51.220;4.412;2022-10-30T00:46:20;19.74;67.46
5938;DHT22;2994;51.220;4.412;2022-10-30T00:49:13;19.73;67.52
5938;DHT22;2994;51.220;4.412;2022-10-30T00:51:47;19.71;67.52
5938;DHT22;2994;51.220;4.412;2022-10-30T00:54:15;19.72;67.40
5938;DHT22;2994;51.220;4.412;2022-10-30T00:56:42;19.72;67.46
5938;DHT22;2994;51.220;4.412;2022-10-30T00:59:12;19.72;67.62
5938;DHT22;2994;51.220;4.412;2022-10-30T01:01:43;19.71;67.60
5938;DHT22;2994;51.220;4.412;2022-10-30T01:04:10;19.70;67.48
5938;DHT22;2994;51.220;4.412;2022-10-30T01:06:39;19.70;67.49
5938;DHT22;2994;51.220;4.412;2022-10-30T01:09:07;19.70;67.40
5938;DHT22;2994;51.220;4.412;2022-10-30T01:11:32;19.71;67.19
5938;DHT22;2994;51.220;4.412;2022-10-30T01:14:01;19.67;67.07
5938;DHT22;2994;51.220;4.412;2022-10-30T01:32:40;19.66;67.20
5938;DHT22;2994;51.220;4.412;2022-10-30T01:35:18;19.67;67.19
5938;DHT22;2994;51.220;4.412;2022-10-30T01:38:02;19.68;67.16
5938;DHT22;2994;51.220;4.412;2022-10-30T01:40:28;19.67;67.45
5938;DHT22;2994;51.220;4.412;2022-10-30T01:42:55;19.66;67.55
5938;DHT22;2994;51.220;4.412;2022-10-30T01:53:44;19.62;67.73
5938;DHT22;2994;51.220;4.412;2022-10-30T01:56:26;19.60;67.36
5938;DHT22;2994;51.220;4.412;2022-10-30T01:59:00;19.59;67.23
5938;DHT22;2994;51.220;4.412;2022-10-30T02:01:30;19.60;67.48
5938;DHT22;2994;51.220;4.412;2022-10-30T02:03:57;19.60;67.72
5938;DHT22;2994;51.220;4.412;2022-10-30T02:06:23;19.61;67.75
5938;DHT22;2994;51.220;4.412;2022-10-30T02:08:49;19.60;67.81
5938;DHT22;2994;51.220;4.412;2022-10-30T02:11:14;19.61;67.81
5938;DHT22;2994;51.220;4.412;2022-10-30T02:13:40;19.61;68.04
5938;DHT22;2994;51.220;4.412;2022-10-30T02:16:06;19.60;68.09
5938;DHT22;2994;51.220;4.412;2022-10-30T02:18:32;19.60;67.96
5938;DHT22;2994;51.220;4.412;2022-10-30T02:20:57;19.58;68.00
5938;DHT22;2994;51.220;4.412;2022-10-30T02:23:23;19.57;68.09
5938;DHT22;2994;51.220;4.412;2022-10-30T02:25:51;19.56;68.16
5938;DHT22;2994;51.220;4.412;2022-10-30T02:28:17;19.54;68.27
5938;DHT22;2994;51.220;4.412;2022-10-30T02:30:42;19.52;68.22
5938;DHT22;2994;51.220;4.412;2022-10-30T02:33:08;19.52;68.30
5938;DHT22;2994;51.220;4.412;2022-10-30T02:35:34;19.50;68.32
5938;DHT22;2994;51.220;4.412;2022-10-30T02:38:00;19.50;68.26
5938;DHT22;2994;51.220;4.412;2022-10-30T02:40:25;19.50;68.10
5938;DHT22;2994;51.220;4.412;2022-10-30T02:42:52;19.46;68.31
5938;DHT22;2994;51.220;4.412;2022-10-30T02:45:18;19.47;68.55
5938;DHT22;2994;51.220;4.412;2022-10-30T02:47:44;19.45;68.49
5938;DHT22;2994;51.220;4.412;2022-10-30T02:50:09;19.43;68.47
5938;DHT22;2994;51.220;4.412;2022-10-30T02:52:35;19.40;68.62
5938;DHT22;2994;51.220;4.412;2022-10-30T02:55:00;19.40;68.49
5938;DHT22;2994;51.220;4.412;2022-10-30T02:57:26;19.38;68.42
5938;DHT22;2994;51.220;4.412;2022-10-30T02:59:51;19.38;68.24
5938;DHT22;2994;51.220;4.412;2022-10-30T03:02:17;19.35;68.06
5938;DHT22;2994;51.220;4.412;2022-10-30T03:04:42;19.36;68.39
5938;DHT22;2994;51.220;4.412;2022-10-30T03:07:07;19.35;68.32
5938;DHT22;2994;51.220;4.412;2022-10-30T03:09:33;19.33;68.42
5938;DHT22;2994;51.220;4.412;2022-10-30T03:11:58;19.32;68.39
5938;DHT22;2994;51.220;4.412;2022-10-30T03:14:24;19.32;68.56
5938;DHT22;2994;51.220;4.412;2022-10-30T03:16:49;19.28;68.62
5938;DHT22;2994;51.220;4.412;2022-10-30T03:19:17;19.25;68.87
5938;DHT22;2994;51.220;4.412;2022-10-30T03:21:42;19.23;68.95
5938;DHT22;2994;51.220;4.412;2022-10-30T03:24:07;19.22;69.11
5938;DHT22;2994;51.220;4.412;2022-10-30T03:26:33;19.21;69.07
5938;DHT22;2994;51.220;4.412;2022-10-30T03:28:58;19.21;68.94
5938;DHT22;2994;51.220;4.412;2022-10-30T03:31:24;19.20;69.04
5938;DHT22;2994;51.220;4.412;2022-10-30T03:33:49;19.15;69.10
5938;DHT22;2994;51.220;4.412;2022-10-30T03:36:15;19.15;69.01
5938;DHT22;2994;51.220;4.412;2022-10-30T03:38:40;19.12;68.70
5938;DHT22;2994;51.220;4.412;2022-10-30T03:41:06;19.09;68.69
5938;DHT22;2994;51.220;4.412;2022-10-30T03:43:32;19.10;68.74
5938;DHT22;2994;51.220;4.412;2022-10-30T03:45:57;19.07;69.00
5938;DHT22;2994;51.220;4.412;2022-10-30T03:48:26;19.09;68.94
5938;DHT22;2994;51.220;4.412;2022-10-30T03:50:56;19.07;68.65
5938;DHT22;2994;51.220;4.412;2022-10-30T03:53:22;19.06;68.58
5938;DHT22;2994;51.220;4.412;2022-10-30T03:55:50;19.05;68.78
5938;DHT22;2994;51.220;4.412;2022-10-30T03:58:16;19.05;68.78
5938;DHT22;2994;51.220;4.412;2022-10-30T04:00:42;19.00;69.04
5938;DHT22;2994;51.220;4.412;2022-10-30T04:03:08;19.00;69.36
5938;DHT22;2994;51.220;4.412;2022-10-30T04:05:35;18.97;69.53
5938;DHT22;2994;51.220;4.412;2022-10-30T04:08:03;18.98;69.54
5938;DHT22;2994;51.220;4.412;2022-10-30T04:10:29;18.96;69.55
5938;DHT22;2994;51.220;4.412;2022-10-30T04:13:01;18.93;69.56
5938;DHT22;2994;51.220;4.412;2022-10-30T04:15:27;18.92;69.49
5938;DHT22;2994;51.220;4.412;2022-10-30T04:17:53;18.87;69.62
5938;DHT22;2994;51.220;4.412;2022-10-30T04:20:20;18.86;69.78
5938;DHT22;2994;51.220;4.412;2022-10-30T04:22:46;18.83;69.79
5938;DHT22;2994;51.220;4.412;2022-10-30T04:25:12;18.83;69.91
5938;DHT22;2994;51.220;4.412;2022-10-30T04:27:41;18.81;69.91
5938;DHT22;2994;51.220;4.412;2022-10-30T04:30:08;18.81;69.55
5938;DHT22;2994;51.220;4.412;2022-10-30T04:32:34;18.79;69.65
5938;DHT22;2994;51.220;4.412;2022-10-30T04:34:59;18.79;69.61
5938;DHT22;2994;51.220;4.412;2022-10-30T04:37:25;18.79;69.39
5938;DHT22;2994;51.220;4.412;2022-10-30T04:39:50;18.76;69.47
5938;DHT22;2994;51.220;4.412;2022-10-30T04:42:16;18.73;69.79
5938;DHT22;2994;51.220;4.412;2022-10-30T04:44:41;18.73;69.89
5938;DHT22;2994;51.220;4.412;2022-10-30T04:47:06;18.72;69.92
5938;DHT22;2994;51.220;4.412;2022-10-30T04:49:32;18.71;70.07
5938;DHT22;2994;51.220;4.412;2022-10-30T04:51:57;18.69;70.28
5938;DHT22;2994;51.220;4.412;2022-10-30T04:54:23;18.67;70.29
5938;DHT22;2994;51.220;4.412;2022-10-30T04:56:48;18.66;70.24
5938;DHT22;2994;51.220;4.412;2022-10-30T04:59:14;18.65;69.89
5938;DHT22;2994;51.220;4.412;2022-10-30T05:01:39;18.61;69.81
5938;DHT22;2994;51.220;4.412;2022-10-30T05:04:04;18.56;69.98
5938;DHT22;2994;51.220;4.412;2022-10-30T05:06:30;18.54;69.96
5938;DHT22;2994;51.220;4.412;2022-10-30T05:08:55;18.47;70.16
5938;DHT22;2994;51.220;4.412;2022-10-30T05:11:22;18.43;70.20
5938;DHT22;2994;51.220;4.412;2022-10-30T05:13:47;18.40;70.40
5938;DHT22;2994;51.220;4.412;2022-10-30T05:16:13;18.40;70.40
5938;DHT22;2994;51.220;4.412;2022-10-30T05:18:38;18.38;70.15
5938;DHT22;2994;51.220;4.412;2022-10-30T05:21:04;18.37;70.57
5938;DHT22;2994;51.220;4.412;2022-10-30T05:23:29;18.37;70.62
5938;DHT22;2994;51.220;4.412;2022-10-30T05:25:55;18.37;70.55
5938;DHT22;2994;51.220;4.412;2022-10-30T05:28:20;18.36;70.26
5938;DHT22;2994;51.220;4.412;2022-10-30T05:30:45;18.33;70.46
5938;DHT22;2994;51.220;4.412;2022-10-30T05:33:12;18.32;70.54
5938;DHT22;2994;51.220;4.412;2022-10-30T05:35:41;18.28;70.79
5938;DHT22;2994;51.220;4.412;2022-10-30T05:38:07;18.29;70.54
5938;DHT22;2994;51.220;4.412;2022-10-30T05:40:33;18.28;70.58
5938;DHT22;2994;51.220;4.412;2022-10-30T05:42:59;18.20;70.91
5938;DHT22;2994;51.220;4.412;2022-10-30T05:45:25;18.15;71.00
5938;DHT22;2994;51.220;4.412;2022-10-30T05:47:58;18.11;71.09
5938;DHT22;2994;51.220;4.412;2022-10-30T05:50:24;18.12;70.99
5938;DHT22;2994;51.220;4.412;2022-10-30T05:52:57;18.11;70.97
5938;DHT22;2994;51.220;4.412;2022-10-30T05:55:23;18.08;70.89
5938;DHT22;2994;51.220;4.412;2022-10-30T05:57:49;18.08;70.85
5938;DHT22;2994;51.220;4.412;2022-10-30T06:00:15;18.06;70.91
5938;DHT22;2994;51.220;4.412;2022-10-30T06:02:41;18.03;71.03
5938;DHT22;2994;51.220;4.412;2022-10-30T06:05:06;17.96;71.23
5938;DHT22;2994;51.220;4.412;2022-10-30T06:07:32;17.96;71.13
5938;DHT22;2994;51.220;4.412;2022-10-30T06:09:57;17.93;71.30
5938;DHT22;2994;51.220;4.412;2022-10-30T06:12:23;17.91;71.33
5938;DHT22;2994;51.220;4.412;2022-10-30T06:14:48;17.93;71.04
5938;DHT22;2994;51.220;4.412;2022-10-30T06:17:13;17.93;71.13
5938;DHT22;2994;51.220;4.412;2022-10-30T06:19:39;17.92;71.30
5938;DHT22;2994;51.220;4.412;2022-10-30T06:22:04;17.95;71.41
5938;DHT22;2994;51.220;4.412;2022-10-30T06:24:30;17.93;71.35
5938;DHT22;2994;51.220;4.412;2022-10-30T06:26:56;17.95;71.14
5938;DHT22;2994;51.220;4.412;2022-10-30T06:29:21;17.96;71.35
5938;DHT22;2994;51.220;4.412;2022-10-30T06:31:46;17.96;71.45
5938;DHT22;2994;51.220;4.412;2022-10-30T06:34:12;17.95;71.18
5938;DHT22;2994;51.220;4.412;2022-10-30T06:36:37;17.91;71.29
5938;DHT22;2994;51.220;4.412;2022-10-30T06:39:03;17.94;71.13
5938;DHT22;2994;51.220;4.412;2022-10-30T06:41:28;17.93;71.02
5938;DHT22;2994;51.220;4.412;2022-10-30T06:43:53;17.94;71.03
5938;DHT22;2994;51.220;4.412;2022-10-30T06:46:19;17.93;71.08
5938;DHT22;2994;51.220;4.412;2022-10-30T06:48:44;17.95;70.87
5938;DHT22;2994;51.220;4.412;2022-10-30T06:51:10;17.96;70.88
5938;DHT22;2994;51.220;4.412;2022-10-30T06:53:38;17.94;71.02
5938;DHT22;2994;51.220;4.412;2022-10-30T06:56:04;17.97;70.90
5938;DHT22;2994;51.220;4.412;2022-10-30T06:58:29;17.96;70.83
5938;DHT22;2994;51.220;4.412;2022-10-30T07:00:55;17.94;70.87
5938;DHT22;2994;51.220;4.412;2022-10-30T07:03:20;17.96;71.00
5938;DHT22;2994;51.220;4.412;2022-10-30T07:05:46;17.96;70.82
5938;DHT22;2994;51.220;4.412;2022-10-30T07:08:14;17.94;70.84
5938;DHT22;2994;51.220;4.412;2022-10-30T07:10:40;17.97;70.76
5938;DHT22;2994;51.220;4.412;2022-10-30T07:13:06;17.98;70.71
5938;DHT22;2994;51.220;4.412;2022-10-30T07:15:32;17.99;71.01
5938;DHT22;2994;51.220;4.412;2022-10-30T07:18:00;18.04;71.43
5938;DHT22;2994;51.220;4.412;2022-10-30T07:20:29;18.08;71.40
5938;DHT22;2994;51.220;4.412;2022-10-30T07:22:55;18.10;71.20
5938;DHT22;2994;51.220;4.412;2022-10-30T07:25:31;18.12;71.07
5938;DHT22;2994;51.220;4.412;2022-10-30T07:27:56;18.15;71.19
5938;DHT22;2994;51.220;4.412;2022-10-30T07:30:24;18.19;71.45
5938;DHT22;2994;51.220;4.412;2022-10-30T07:33:04;18.22;70.72
5938;DHT22;2994;51.220;4.412;2022-10-30T07:35:34;18.24;70.35
5938;DHT22;2994;51.220;4.412;2022-10-30T07:38:05;18.23;70.31
5938;DHT22;2994;51.220;4.412;2022-10-30T07:40:32;18.25;70.18
5938;DHT22;2994;51.220;4.412;2022-10-30T07:42:59;18.28;69.97
5938;DHT22;2994;51.220;4.412;2022-10-30T07:45:26;18.29;70.26
5938;DHT22;2994;51.220;4.412;2022-10-30T07:47:52;18.30;70.09
5938;DHT22;2994;51.220;4.412;2022-10-30T07:50:18;18.30;69.87
5938;DHT22;2994;51.220;4.412;2022-10-30T07:52:44;18.32;69.84
5938;DHT22;2994;51.220;4.412;2022-10-30T07:55:12;18.34;69.70
5938;DHT22;2994;51.220;4.412;2022-10-30T07:57:40;18.35;69.84
5938;DHT22;2994;51.220;4.412;2022-10-30T08:00:08;18.37;70.29
5938;DHT22;2994;51.220;4.412;2022-10-30T08:02:37;18.41;69.78
5938;DHT22;2994;51.220;4.412;2022-10-30T08:05:03;18.41;69.83
5938;DHT22;2994;51.220;4.412;2022-10-30T08:07:33;18.42;69.64
5938;DHT22;2994;51.220;4.412;2022-10-30T08:09:59;18.44;70.19
5938;DHT22;2994;51.220;4.412;2022-10-30T08:12:25;18.49;70.17
5938;DHT22;2994;51.220;4.412;2022-10-30T08:14:51;18.53;70.39
5938;DHT22;2994;51.220;4.412;2022-10-30T08:17:18;18.59;69.67
5938;DHT22;2994;51.220;4.412;2022-10-30T08:19:46;18.63;69.61
5938;DHT22;2994;51.220;4.412;2022-10-30T08:22:12;18.68;69.47
5938;DHT22;2994;51.220;4.412;2022-10-30T08:24:38;18.70;69.20
5938;DHT22;2994;51.220;4.412;2022-10-30T08:27:03;18.74;69.07
5938;DHT22;2994;51.220;4.412;2022-10-30T08:29:30;18.79;69.55
5938;DHT22;2994;51.220;4.412;2022-10-30T08:31:55;18.85;69.16
5938;DHT22;2994;51.220;4.412;2022-10-30T08:34:21;18.88;69.29
5938;DHT22;2994;51.220;4.412;2022-10-30T08:36:48;18.95;69.13
5938;DHT22;2994;51.220;4.412;2022-10-30T08:39:14;18.98;69.23
5938;DHT22;2994;51.220;4.412;2022-10-30T08:41:39;19.05;68.81
5938;DHT22;2994;51.220;4.412;2022-10-30T08:44:08;19.09;68.65
5938;DHT22;2994;51.220;4.412;2022-10-30T08:46:33;19.11;68.23
5938;DHT22;2994;51.220;4.412;2022-10-30T08:48:59;19.13;68.88
5938;DHT22;2994;51.220;4.412;2022-10-30T08:51:25;19.18;69.19
5938;DHT22;2994;51.220;4.412;2022-10-30T08:53:50;19.22;69.52
5938;DHT22;2994;51.220;4.412;2022-10-30T08:56:16;19.26;68.43
5938;DHT22;2994;51.220;4.412;2022-10-30T08:58:42;19.29;67.49
5938;DHT22;2994;51.220;4.412;2022-10-30T09:01:07;19.30;67.35
5938;DHT22;2994;51.220;4.412;2022-10-30T09:03:33;19.33;67.24
5938;DHT22;2994;51.220;4.412;2022-10-30T09:05:58;19.36;68.01
5938;DHT22;2994;51.220;4.412;2022-10-30T09:08:24;19.40;68.62
5938;DHT22;2994;51.220;4.412;2022-10-30T09:10:56;19.44;68.15
5938;DHT22;2994;51.220;4.412;2022-10-30T09:13:22;19.47;68.07
5938;DHT22;2994;51.220;4.412;2022-10-30T09:15:48;19.50;67.32
5938;DHT22;2994;51.220;4.412;2022-10-30T09:18:13;19.48;66.53
5938;DHT22;2994;51.220;4.412;2022-10-30T09:20:39;19.50;66.51
5938;DHT22;2994;51.220;4.412;2022-10-30T09:23:04;19.53;66.78
5938;DHT22;2994;51.220;4.412;2022-10-30T09:25:30;19.58;67.04
5938;DHT22;2994;51.220;4.412;2022-10-30T09:27:55;19.57;66.55
5938;DHT22;2994;51.220;4.412;2022-10-30T09:30:21;19.65;66.29
5938;DHT22;2994;51.220;4.412;2022-10-30T09:32:53;19.67;66.45
5938;DHT22;2994;51.220;4.412;2022-10-30T09:35:22;19.72;66.84
5938;DHT22;2994;51.220;4.412;2022-10-30T09:37:47;19.75;66.88
5938;DHT22;2994;51.220;4.412;2022-10-30T09:40:40;19.79;66.78
5938;DHT22;2994;51.220;4.412;2022-10-30T09:48:40;19.84;67.33
5938;DHT22;2994;51.220;4.412;2022-10-30T09:54:26;19.89;67.33
5938;DHT22;2994;51.220;4.412;2022-10-30T10:02:55;20.01;66.44
5938;DHT22;2994;51.220;4.412;2022-10-30T10:05:28;20.02;65.92
5938;DHT22;2994;51.220;4.412;2022-10-30T10:08:03;19.95;65.32
5938;DHT22;2994;51.220;4.412;2022-10-30T10:10:44;19.97;65.03
5938;DHT22;2994;51.220;4.412;2022-10-30T10:15:52;19.83;65.81
5938;DHT22;2994;51.220;4.412;2022-10-30T10:18:32;19.95;66.16
5938;DHT22;2994;51.220;4.412;2022-10-30T10:21:06;20.00;65.82
5938;DHT22;2994;51.220;4.412;2022-10-30T10:23:49;20.06;66.00
5938;DHT22;2994;51.220;4.412;2022-10-30T10:26:52;20.13;66.33
5938;DHT22;2994;51.220;4.412;2022-10-30T10:45:47;20.45;64.72
5938;DHT22;2994;51.220;4.412;2022-10-30T10:51:19;20.54;64.73
5938;DHT22;2994;51.220;4.412;2022-10-30T10:53:54;20.57;64.79
5938;DHT22;2994;51.220;4.412;2022-10-30T10:56:31;20.62;65.00
5938;DHT22;2994;51.220;4.412;2022-10-30T10:59:02;20.66;64.83
5938;DHT22;2994;51.220;4.412;2022-10-30T11:01:37;20.70;64.79
5938;DHT22;2994;51.220;4.412;2022-10-30T11:04:13;20.75;65.91
5938;DHT22;2994;51.220;4.412;2022-10-30T11:06:47;20.77;66.53
5938;DHT22;2994;51.220;4.412;2022-10-30T11:09:22;20.79;66.09
5938;DHT22;2994;51.220;4.412;2022-10-30T11:11:49;20.81;65.08
5938;DHT22;2994;51.220;4.412;2022-10-30T11:14:23;20.87;64.12
5938;DHT22;2994;51.220;4.412;2022-10-30T11:19:18;20.94;63.75
5938;DHT22;2994;51.220;4.412;2022-10-30T11:21:47;20.95;63.12
5938;DHT22;2994;51.220;4.412;2022-10-30T11:24:32;21.02;64.01
5938;DHT22;2994;51.220;4.412;2022-10-30T11:27:24;21.06;64.34
5938;DHT22;2994;51.220;4.412;2022-10-30T11:30:03;21.07;62.85
5938;DHT22;2994;51.220;4.412;2022-10-30T11:32:32;21.09;62.28
5938;DHT22;2994;51.220;4.412;2022-10-30T11:35:11;21.15;62.28
5938;DHT22;2994;51.220;4.412;2022-10-30T11:37:38;21.18;62.34
5938;DHT22;2994;51.220;4.412;2022-10-30T11:40:14;21.19;61.92
5938;DHT22;2994;51.220;4.412;2022-10-30T11:42:42;21.22;61.86
5938;DHT22;2994;51.220;4.412;2022-10-30T11:45:18;21.24;62.08
5938;DHT22;2994;51.220;4.412;2022-10-30T11:47:45;21.23;61.72
5938;DHT22;2994;51.220;4.412;2022-10-30T11:50:17;21.24;61.45
5938;DHT22;2994;51.220;4.412;2022-10-30T11:52:44;21.31;60.96
5938;DHT22;2994;51.220;4.412;2022-10-30T11:55:18;21.34;61.30
5938;DHT22;2994;51.220;4.412;2022-10-30T11:57:46;21.37;61.77
5938;DHT22;2994;51.220;4.412;2022-10-30T12:00:24;21.37;61.33
5938;DHT22;2994;51.220;4.412;2022-10-30T12:02:52;21.39;61.57
5938;DHT22;2994;51.220;4.412;2022-10-30T12:07:54;21.44;61.41
5938;DHT22;2994;51.220;4.412;2022-10-30T12:10:25;21.45;61.35
5938;DHT22;2994;51.220;4.412;2022-10-30T12:12:51;21.49;61.54
5938;DHT22;2994;51.220;4.412;2022-10-30T12:15:24;21.50;61.39
5938;DHT22;2994;51.220;4.412;2022-10-30T12:17:52;21.51;61.74
5938;DHT22;2994;51.220;4.412;2022-10-30T12:20:18;21.53;61.97
5938;DHT22;2994;51.220;4.412;2022-10-30T12:22:45;21.57;62.01
5938;DHT22;2994;51.220;4.412;2022-10-30T12:25:29;21.59;61.59
5938;DHT22;2994;51.220;4.412;2022-10-30T12:28:00;21.61;61.95
5938;DHT22;2994;51.220;4.412;2022-10-30T12:31:00;21.62;61.31
5938;DHT22;2994;51.220;4.412;2022-10-30T12:33:36;21.65;61.23
5938;DHT22;2994;51.220;4.412;2022-10-30T12:36:14;21.67;61.29
5938;DHT22;2994;51.220;4.412;2022-10-30T12:41:24;21.66;61.02
5938;DHT22;2994;51.220;4.412;2022-10-30T12:44:03;21.69;61.38
5938;DHT22;2994;51.220;4.412;2022-10-30T12:49:26;21.68;59.99
5938;DHT22;2994;51.220;4.412;2022-10-30T12:51:59;21.69;59.70
5938;DHT22;2994;51.220;4.412;2022-10-30T12:54:30;21.73;59.19
5938;DHT22;2994;51.220;4.412;2022-10-30T12:57:08;21.77;59.51
5938;DHT22;2994;51.220;4.412;2022-10-30T13:04:43;21.68;59.32
5938;DHT22;2994;51.220;4.412;2022-10-30T13:07:30;21.74;59.62
5938;DHT22;2994;51.220;4.412;2022-10-30T13:10:36;21.79;59.74
5938;DHT22;2994;51.220;4.412;2022-10-30T13:13:19;21.82;60.41
5938;DHT22;2994;51.220;4.412;2022-10-30T13:15:49;21.75;61.08
5938;DHT22;2994;51.220;4.412;2022-10-30T13:18:20;21.78;61.34
5938;DHT22;2994;51.220;4.412;2022-10-30T13:21:06;21.76;61.05
5938;DHT22;2994;51.220;4.412;2022-10-30T13:23:54;21.76;61.59
5938;DHT22;2994;51.220;4.412;2022-10-30T13:26:45;21.77;62.12
5938;DHT22;2994;51.220;4.412;2022-10-30T13:29:28;21.74;61.38
5938;DHT22;2994;51.220;4.412;2022-10-30T13:32:37;21.66;61.31
5938;DHT22;2994;51.220;4.412;2022-10-30T13:38:05;21.61;61.23
5938;DHT22;2994;51.220;4.412;2022-10-30T13:40:38;21.54;61.20
5938;DHT22;2994;51.220;4.412;2022-10-30T13:43:41;21.54;61.63
5938;DHT22;2994;51.220;4.412;2022-10-30T13:50:04;21.55;61.63
5938;DHT22;2994;51.220;4.412;2022-10-30T13:52:37;21.52;61.58
5938;DHT22;2994;51.220;4.412;2022-10-30T13:55:20;21.46;62.18
5938;DHT22;2994;51.220;4.412;2022-10-30T14:00:58;21.55;61.89
5938;DHT22;2994;51.220;4.412;2022-10-30T14:10:04;21.58;63.17
5938;DHT22;2994;51.220;4.412;2022-10-30T14:15:33;21.57;62.54
5938;DHT22;2994;51.220;4.412;2022-10-30T14:20:44;21.54;62.25
5938;DHT22;2994;51.220;4.412;2022-10-30T14:28:44;21.50;62.92
5938;DHT22;2994;51.220;4.412;2022-10-30T14:31:17;21.48;63.01
5938;DHT22;2994;51.220;4.412;2022-10-30T14:33:53;21.53;63.04
5938;DHT22;2994;51.220;4.412;2022-10-30T14:44:54;21.39;63.42
5938;DHT22;2994;51.220;4.412;2022-10-30T14:53:12;21.35;63.56
5938;DHT22;2994;51.220;4.412;2022-10-30T14:56:09;21.08;63.06
5938;DHT22;2994;51.220;4.412;2022-10-30T14:58:42;21.02;62.62
5938;DHT22;2994;51.220;4.412;2022-10-30T15:03:45;20.72;62.73
5938;DHT22;2994;51.220;4.412;2022-10-30T15:09:38;20.57;63.86
5938;DHT22;2994;51.220;4.412;2022-10-30T15:14:56;20.47;64.82
5938;DHT22;2994;51.220;4.412;2022-10-30T15:19:55;20.11;66.30
5938;DHT22;2994;51.220;4.412;2022-10-30T15:22:22;20.06;66.59
5938;DHT22;2994;51.220;4.412;2022-10-30T15:24:50;20.03;66.73
5938;DHT22;2994;51.220;4.412;2022-10-30T15:27:18;19.95;67.12
5938;DHT22;2994;51.220;4.412;2022-10-30T15:29:59;19.98;67.36
5938;DHT22;2994;51.220;4.412;2022-10-30T15:32:25;19.99;67.38
5938;DHT22;2994;51.220;4.412;2022-10-30T15:35:03;19.94;67.54
5938;DHT22;2994;51.220;4.412;2022-10-30T15:37:29;19.74;68.17
5938;DHT22;2994;51.220;4.412;2022-10-30T15:40:17;19.84;68.38
5938;DHT22;2994;51.220;4.412;2022-10-30T15:42:44;19.80;68.16
5938;DHT22;2994;51.220;4.412;2022-10-30T15:45:19;19.79;68.22
5938;DHT22;2994;51.220;4.412;2022-10-30T15:47:51;19.80;68.82
5938;DHT22;2994;51.220;4.412;2022-10-30T15:50:18;19.81;68.38
5938;DHT22;2994;51.220;4.412;2022-10-30T15:52:45;19.70;68.57
5938;DHT22;2994;51.220;4.412;2022-10-30T15:55:16;19.66;68.68
5938;DHT22;2994;51.220;4.412;2022-10-30T15:57:46;19.65;68.68
5938;DHT22;2994;51.220;4.412;2022-10-30T16:00:25;19.62;68.73
5938;DHT22;2994;51.220;4.412;2022-10-30T16:03:05;19.59;68.84
5938;DHT22;2994;51.220;4.412;2022-10-30T16:05:31;19.59;69.21
5938;DHT22;2994;51.220;4.412;2022-10-30T16:07:59;19.61;69.58
5938;DHT22;2994;51.220;4.412;2022-10-30T16:10:29;19.66;68.75
5938;DHT22;2994;51.220;4.412;2022-10-30T16:12:57;19.69;68.49
5938;DHT22;2994;51.220;4.412;2022-10-30T16:15:27;19.72;68.01
5938;DHT22;2994;51.220;4.412;2022-10-30T16:20:41;19.70;67.69
5938;DHT22;2994;51.220;4.412;2022-10-30T16:23:07;19.69;68.13
5938;DHT22;2994;51.220;4.412;2022-10-30T16:25:33;19.70;67.83
5938;DHT22;2994;51.220;4.412;2022-10-30T16:28:02;19.68;67.74
5938;DHT22;2994;51.220;4.412;2022-10-30T16:30:28;19.69;67.27
5938;DHT22;2994;51.220;4.412;2022-10-30T16:32:56;19.67;67.15
5938;DHT22;2994;51.220;4.412;2022-10-30T16:35:23;19.62;67.74
5938;DHT22;2994;51.220;4.412;2022-10-30T16:37:49;19.65;67.77
5938;DHT22;2994;51.220;4.412;2022-10-30T16:40:20;19.61;67.78
5938;DHT22;2994;51.220;4.412;2022-10-30T16:42:55;19.61;67.78
5938;DHT22;2994;51.220;4.412;2022-10-30T16:48:01;19.63;68.68
5938;DHT22;2994;51.220;4.412;2022-10-30T16:50:35;19.63;68.09
5938;DHT22;2994;51.220;4.412;2022-10-30T16:53:05;19.63;67.88
5938;DHT22;2994;51.220;4.412;2022-10-30T16:55:31;19.56;68.36
5938;DHT22;2994;51.220;4.412;2022-10-30T16:57:58;19.60;68.14
5938;DHT22;2994;51.220;4.412;2022-10-30T17:00:26;19.59;68.11
5938;DHT22;2994;51.220;4.412;2022-10-30T17:02:53;19.58;68.20
5938;DHT22;2994;51.220;4.412;2022-10-30T17:05:26;19.59;68.17
5938;DHT22;2994;51.220;4.412;2022-10-30T17:07:57;19.58;68.36
5938;DHT22;2994;51.220;4.412;2022-10-30T17:10:32;19.57;68.65
5938;DHT22;2994;51.220;4.412;2022-10-30T17:15:51;19.58;68.31
5938;DHT22;2994;51.220;4.412;2022-10-30T17:18:17;19.56;68.07
5938;DHT22;2994;51.220;4.412;2022-10-30T17:20:45;19.57;68.20
5938;DHT22;2994;51.220;4.412;2022-10-30T17:23:21;19.55;68.39
5938;DHT22;2994;51.220;4.412;2022-10-30T17:25:47;19.53;68.69
5938;DHT22;2994;51.220;4.412;2022-10-30T17:28:27;19.52;68.83
5938;DHT22;2994;51.220;4.412;2022-10-30T17:30:53;19.51;68.91
5938;DHT22;2994;51.220;4.412;2022-10-30T17:33:25;19.50;69.10
5938;DHT22;2994;51.220;4.412;2022-10-30T17:35:54;19.47;68.75
5938;DHT22;2994;51.220;4.412;2022-10-30T17:38:19;19.48;68.78
5938;DHT22;2994;51.220;4.412;2022-10-30T17:40:45;19.47;68.91
5938;DHT22;2994;51.220;4.412;2022-10-30T17:43:11;19.43;68.95
5938;DHT22;2994;51.220;4.412;2022-10-30T17:45:41;19.43;69.11
5938;DHT22;2994;51.220;4.412;2022-10-30T17:48:15;19.40;69.13
5938;DHT22;2994;51.220;4.412;2022-10-30T17:50:41;19.40;69.25
5938;DHT22;2994;51.220;4.412;2022-10-30T17:53:14;19.37;69.44
5938;DHT22;2994;51.220;4.412;2022-10-30T17:55:39;19.37;69.42
5938;DHT22;2994;51.220;4.412;2022-10-30T17:58:05;19.36;69.35
5938;DHT22;2994;51.220;4.412;2022-10-30T18:00:31;19.36;69.35
5938;DHT22;2994;51.220;4.412;2022-10-30T18:02:56;19.32;69.46
5938;DHT22;2994;51.220;4.412;2022-10-30T18:05:24;19.31;69.60
5938;DHT22;2994;51.220;4.412;2022-10-30T18:07:50;19.33;69.56
5938;DHT22;2994;51.220;4.412;2022-10-30T18:10:15;19.32;69.99
5938;DHT22;2994;51.220;4.412;2022-10-30T18:12:40;19.33;69.98
5938;DHT22;2994;51.220;4.412;2022-10-30T18:15:31;19.32;70.08
5938;DHT22;2994;51.220;4.412;2022-10-30T18:17:58;19.33;69.64
5938;DHT22;2994;51.220;4.412;2022-10-30T18:20:24;19.35;69.57
5938;DHT22;2994;51.220;4.412;2022-10-30T18:22:50;19.30;69.55
5938;DHT22;2994;51.220;4.412;2022-10-30T18:25:21;19.27;69.65
5938;DHT22;2994;51.220;4.412;2022-10-30T18:27:47;19.30;69.46
5938;DHT22;2994;51.220;4.412;2022-10-30T18:30:13;19.28;69.67
5938;DHT22;2994;51.220;4.412;2022-10-30T18:32:42;19.25;69.68
5938;DHT22;2994;51.220;4.412;2022-10-30T18:35:27;19.24;69.70